sensor_id;sensor_type;location;lat;lon;timestamp;temperature;humidity
32322;DHT22;61553;48.994;8.940;2022-09-12T00:00:27;9.60;99.90
32322;DHT22;61553;48.994;8.940;2022-09-12T00:02:54;9.60;99.90
32322;DHT22;61553;48.994;8.940;2022-09-12T00:05:21;9.50;99.90
32322;DHT22;61553;48.994;8.940;2022-09-12T00:07:47;9.50;99.90
32322;DHT22;61553;48.994;8.940;2022-09-12T00:10:13;9.40;99.90
32322;DHT22;61553;48.994;8.940;2022-09-12T00:12:39;9.40;99.90
32322;DHT22;61553;48.994;8.940;2022-09-12T00:15:05;9.40;99.90
32322;DHT22;61553;48.994;8.940;2022-09-12T00:17:35;9.40;99.90
32322;DHT22;61553;48.994;8.940;2022-09-12T00:20:02;9.40;99.90
32322;DHT22;61553;48.994;8.940;2022-09-12T00:22:28;9.40;99.90
32322;DHT22;61553;48.994;8.940;2022-09-12T00:24:54;9.30;99.90
32322;DHT22;61553;48.994;8.940;2022-09-12T00:27:19;9.30;99.90
32322;DHT22;61553;48.994;8.940;2022-09-12T00:29:45;9.30;99.90
32322;DHT22;61553;48.994;8.940;2022-09-12T00:32:11;9.30;99.90
32322;DHT22;61553;48.994;8.940;2022-09-12T00:34:36;9.30;99.90
32322;DHT22;61553;48.994;8.940;2022-09-12T00:37:02;9.20;99.90
32322;DHT22;61553;48.994;8.940;2022-09-12T00:39:28;9.20;99.90
32322;DHT22;61553;48.994;8.940;2022-09-12T00:41:54;9.20;99.90
32322;DHT22;61553;48.994;8.940;2022-09-12T00:51:59;9.00;99.90
32322;DHT22;61553;48.994;8.940;2022-09-12T00:54:30;9.00;99.90
32322;DHT22;61553;48.994;8.940;2022-09-12T00:57:00;9.00;99.90
32322;DHT22;61553;48.994;8.940;2022-09-12T00:59:40;9.00;99.90
32322;DHT22;61553;48.994;8.940;2022-09-12T01:02:06;9.00;99.90
32322;DHT22;61553;48.994;8.940;2022-09-12T01:04:36;9.00;99.90
32322;DHT22;61553;48.994;8.940;2022-09-12T01:07:04;9.00;99.90
32322;DHT22;61553;48.994;8.940;2022-09-12T01:09:30;9.10;99.90
32322;DHT22;61553;48.994;8.940;2022-09-12T01:11:57;9.10;99.90
32322;DHT22;61553;48.994;8.940;2022-09-12T01:14:23;9.10;99.90
32322;DHT22;61553;48.994;8.940;2022-09-12T01:16:49;9.10;99.90
32322;DHT22;61553;48.994;8.940;2022-09-12T01:32:33;8.80;99.90
32322;DHT22;61553;48.994;8.940;2022-09-12T01:35:07;8.80;99.90
32322;DHT22;61553;48.994;8.940;2022-09-12T01:46:27;8.70;99.90
32322;DHT22;61553;48.994;8.940;2022-09-12T01:49:08;8.70;99.90
32322;DHT22;61553;48.994;8.940;2022-09-12T01:52:02;8.60;99.90
32322;DHT22;61553;48.994;8.940;2022-09-12T01:54:34;8.60;99.90
32322;DHT22;61553;48.994;8.940;2022-09-12T01:57:06;8.60;99.90
32322;DHT22;61553;48.994;8.940;2022-09-12T01:59:42;8.50;99.90
32322;DHT22;61553;48.994;8.940;2022-09-12T02:02:15;8.50;99.90
32322;DHT22;61553;48.994;8.940;2022-09-12T02:04:56;8.50;99.90
32322;DHT22;61553;48.994;8.940;2022-09-12T02:10:04;8.40;99.90
32322;DHT22;61553;48.994;8.940;2022-09-12T02:12:39;8.40;99.90
32322;DHT22;61553;48.994;8.940;2022-09-12T02:15:08;8.40;99.90
32322;DHT22;61553;48.994;8.940;2022-09-12T02:17:38;8.40;99.90
32322;DHT22;61553;48.994;8.940;2022-09-12T02:20:18;8.40;99.90
32322;DHT22;61553;48.994;8.940;2022-09-12T02:22:46;8.40;99.90
32322;DHT22;61553;48.994;8.940;2022-09-12T02:25:15;8.30;99.90
32322;DHT22;61553;48.994;8.940;2022-09-12T02:27:56;8.30;99.90
32322;DHT22;61553;48.994;8.940;2022-09-12T02:30:23;8.30;99.90
32322;DHT22;61553;48.994;8.940;2022-09-12T02:33:06;8.30;99.90
32322;DHT22;61553;48.994;8.940;2022-09-12T02:38:16;8.20;99.90
32322;DHT22;61553;48.994;8.940;2022-09-12T02:40:43;8.30;99.90
32322;DHT22;61553;48.994;8.940;2022-09-12T02:43:09;8.30;99.90
32322;DHT22;61553;48.994;8.940;2022-09-12T02:45:35;8.40;99.90
32322;DHT22;61553;48.994;8.940;2022-09-12T02:48:26;8.40;99.90
32322;DHT22;61553;48.994;8.940;2022-09-12T02:50:50;8.50;99.90
32322;DHT22;61553;48.994;8.940;2022-09-12T02:53:17;8.50;99.90
32322;DHT22;61553;48.994;8.940;2022-09-12T02:55:43;8.50;99.90
32322;DHT22;61553;48.994;8.940;2022-09-12T02:58:13;8.40;99.90
32322;DHT22;61553;48.994;8.940;2022-09-12T03:03:37;8.40;99.90
32322;DHT22;61553;48.994;8.940;2022-09-12T03:06:21;8.30;99.90
32322;DHT22;61553;48.994;8.940;2022-09-12T03:20:13;8.20;99.90
32322;DHT22;61553;48.994;8.940;2022-09-12T03:22:54;8.20;99.90
32322;DHT22;61553;48.994;8.940;2022-09-12T03:25:35;8.20;99.90
32322;DHT22;61553;48.994;8.940;2022-09-12T03:28:13;8.20;99.90
32322;DHT22;61553;48.994;8.940;2022-09-12T03:30:42;8.20;99.90
32322;DHT22;61553;48.994;8.940;2022-09-12T03:33:18;8.10;99.90
32322;DHT22;61553;48.994;8.940;2022-09-12T03:35:45;8.10;99.90
32322;DHT22;61553;48.994;8.940;2022-09-12T03:38:11;8.10;99.90
32322;DHT22;61553;48.994;8.940;2022-09-12T03:40:38;8.00;99.90
32322;DHT22;61553;48.994;8.940;2022-09-12T03:43:05;7.90;99.90
32322;DHT22;61553;48.994;8.940;2022-09-12T03:45:31;7.90;99.90
32322;DHT22;61553;48.994;8.940;2022-09-12T03:47:57;7.90;99.90
32322;DHT22;61553;48.994;8.940;2022-09-12T03:50:23;7.80;99.90
32322;DHT22;61553;48.994;8.940;2022-09-12T03:52:49;7.80;99.90
32322;DHT22;61553;48.994;8.940;2022-09-12T03:55:14;7.80;99.90
32322;DHT22;61553;48.994;8.940;2022-09-12T03:57:40;7.90;99.90
32322;DHT22;61553;48.994;8.940;2022-09-12T04:00:06;7.90;99.90
32322;DHT22;61553;48.994;8.940;2022-09-12T04:02:35;7.90;99.90
32322;DHT22;61553;48.994;8.940;2022-09-12T04:05:00;7.90;99.90
32322;DHT22;61553;48.994;8.940;2022-09-12T04:07:26;7.80;99.90
32322;DHT22;61553;48.994;8.940;2022-09-12T04:09:52;7.80;99.90
32322;DHT22;61553;48.994;8.940;2022-09-12T04:12:19;7.80;99.90
32322;DHT22;61553;48.994;8.940;2022-09-12T04:14:44;7.80;99.90
32322;DHT22;61553;48.994;8.940;2022-09-12T04:17:10;7.70;99.90
32322;DHT22;61553;48.994;8.940;2022-09-12T04:19:36;7.70;99.90
32322;DHT22;61553;48.994;8.940;2022-09-12T04:22:02;7.60;99.90
32322;DHT22;61553;48.994;8.940;2022-09-12T04:24:28;7.60;99.90
32322;DHT22;61553;48.994;8.940;2022-09-12T04:26:54;7.60;99.90
32322;DHT22;61553;48.994;8.940;2022-09-12T04:29:20;7.60;99.90
32322;DHT22;61553;48.994;8.940;2022-09-12T04:31:46;7.60;99.90
32322;DHT22;61553;48.994;8.940;2022-09-12T04:34:11;7.60;99.90
32322;DHT22;61553;48.994;8.940;2022-09-12T04:36:37;7.50;99.90
32322;DHT22;61553;48.994;8.940;2022-09-12T04:39:04;7.50;99.90
32322;DHT22;61553;48.994;8.940;2022-09-12T04:41:32;7.50;99.90
32322;DHT22;61553;48.994;8.940;2022-09-12T04:44:02;7.50;99.90
32322;DHT22;61553;48.994;8.940;2022-09-12T04:46:32;7.60;99.90
32322;DHT22;61553;48.994;8.940;2022-09-12T04:48:58;7.50;99.90
32322;DHT22;61553;48.994;8.940;2022-09-12T04:51:29;7.50;99.90
32322;DHT22;61553;48.994;8.940;2022-09-12T04:53:58;7.50;99.90
32322;DHT22;61553;48.994;8.940;2022-09-12T04:56:25;7.50;99.90
32322;DHT22;61553;48.994;8.940;2022-09-12T04:58:50;7.50;99.90
32322;DHT22;61553;48.994;8.940;2022-09-12T05:01:18;7.50;99.90
32322;DHT22;61553;48.994;8.940;2022-09-12T05:03:45;7.50;99.90
32322;DHT22;61553;48.994;8.940;2022-09-12T05:06:14;7.50;99.90
32322;DHT22;61553;48.994;8.940;2022-09-12T05:08:40;7.50;99.90
32322;DHT22;61553;48.994;8.940;2022-09-12T05:11:09;7.50;99.90
32322;DHT22;61553;48.994;8.940;2022-09-12T05:13:35;7.50;99.90
32322;DHT22;61553;48.994;8.940;2022-09-12T05:16:03;7.50;99.90
32322;DHT22;61553;48.994;8.940;2022-09-12T05:18:33;7.60;99.90
32322;DHT22;61553;48.994;8.940;2022-09-12T05:21:02;7.60;99.90
32322;DHT22;61553;48.994;8.940;2022-09-12T05:23:29;7.60;99.90
32322;DHT22;61553;48.994;8.940;2022-09-12T05:25:57;7.70;99.90
32322;DHT22;61553;48.994;8.940;2022-09-12T05:28:24;7.70;99.90
32322;DHT22;61553;48.994;8.940;2022-09-12T05:31:04;7.80;99.90
32322;DHT22;61553;48.994;8.940;2022-09-12T05:33:30;7.80;99.90
32322;DHT22;61553;48.994;8.940;2022-09-12T05:35:57;8.00;99.90
32322;DHT22;61553;48.994;8.940;2022-09-12T05:38:22;8.10;99.90
32322;DHT22;61553;48.994;8.940;2022-09-12T05:40:50;8.20;99.90
32322;DHT22;61553;48.994;8.940;2022-09-12T05:43:16;8.30;99.90
32322;DHT22;61553;48.994;8.940;2022-09-12T05:45:41;8.40;99.90
32322;DHT22;61553;48.994;8.940;2022-09-12T05:48:07;8.50;99.90
32322;DHT22;61553;48.994;8.940;2022-09-12T05:50:33;8.60;99.90
32322;DHT22;61553;48.994;8.940;2022-09-12T05:52:58;8.70;99.90
32322;DHT22;61553;48.994;8.940;2022-09-12T05:55:24;8.80;99.90
32322;DHT22;61553;48.994;8.940;2022-09-12T05:57:50;8.90;99.90
32322;DHT22;61553;48.994;8.940;2022-09-12T06:00:16;9.00;99.90
32322;DHT22;61553;48.994;8.940;2022-09-12T06:02:43;9.10;99.90
32322;DHT22;61553;48.994;8.940;2022-09-12T06:05:09;9.20;99.90
32322;DHT22;61553;48.994;8.940;2022-09-12T06:07:35;9.30;99.90
32322;DHT22;61553;48.994;8.940;2022-09-12T06:10:01;9.50;99.90
32322;DHT22;61553;48.994;8.940;2022-09-12T06:12:30;9.70;99.90
32322;DHT22;61553;48.994;8.940;2022-09-12T06:14:57;10.00;99.90
32322;DHT22;61553;48.994;8.940;2022-09-12T06:17:22;10.20;99.90
32322;DHT22;61553;48.994;8.940;2022-09-12T06:19:48;10.40;99.90
32322;DHT22;61553;48.994;8.940;2022-09-12T06:22:16;10.60;99.90
32322;DHT22;61553;48.994;8.940;2022-09-12T06:24:43;10.70;99.90
32322;DHT22;61553;48.994;8.940;2022-09-12T06:27:09;10.80;99.90
32322;DHT22;61553;48.994;8.940;2022-09-12T06:29:34;10.90;99.90
32322;DHT22;61553;48.994;8.940;2022-09-12T06:32:00;11.00;99.90
32322;DHT22;61553;48.994;8.940;2022-09-12T06:34:26;11.10;99.90
32322;DHT22;61553;48.994;8.940;2022-09-12T06:36:52;11.20;99.90
32322;DHT22;61553;48.994;8.940;2022-09-12T06:39:20;11.40;99.90
32322;DHT22;61553;48.994;8.940;2022-09-12T06:41:47;11.50;99.90
32322;DHT22;61553;48.994;8.940;2022-09-12T06:44:16;11.70;99.90
32322;DHT22;61553;48.994;8.940;2022-09-12T06:46:42;11.90;99.90
32322;DHT22;61553;48.994;8.940;2022-09-12T06:49:09;12.00;99.90
32322;DHT22;61553;48.994;8.940;2022-09-12T06:51:34;12.20;99.90
32322;DHT22;61553;48.994;8.940;2022-09-12T06:54:01;12.30;99.90
32322;DHT22;61553;48.994;8.940;2022-09-12T06:56:27;12.50;99.90
32322;DHT22;61553;48.994;8.940;2022-09-12T06:58:55;12.70;99.90
32322;DHT22;61553;48.994;8.940;2022-09-12T07:01:26;14.00;99.90
32322;DHT22;61553;48.994;8.940;2022-09-12T07:03:54;18.20;99.90
32322;DHT22;61553;48.994;8.940;2022-09-12T07:06:25;21.50;99.90
32322;DHT22;61553;48.994;8.940;2022-09-12T07:08:55;24.30;99.90
32322;DHT22;61553;48.994;8.940;2022-09-12T07:11:25;27.00;87.80
32322;DHT22;61553;48.994;8.940;2022-09-12T07:13:53;28.90;73.40
32322;DHT22;61553;48.994;8.940;2022-09-12T07:16:19;30.50;64.40
32322;DHT22;61553;48.994;8.940;2022-09-12T07:18:49;31.70;58.60
32322;DHT22;61553;48.994;8.940;2022-09-12T07:21:15;32.90;54.40
32322;DHT22;61553;48.994;8.940;2022-09-12T07:23:41;34.20;51.10
32322;DHT22;61553;48.994;8.940;2022-09-12T07:26:09;34.60;48.90
32322;DHT22;61553;48.994;8.940;2022-09-12T07:28:35;34.70;47.50
32322;DHT22;61553;48.994;8.940;2022-09-12T07:31:06;35.50;46.30
32322;DHT22;61553;48.994;8.940;2022-09-12T07:33:32;35.90;45.50
32322;DHT22;61553;48.994;8.940;2022-09-12T07:36:03;35.90;44.60
32322;DHT22;61553;48.994;8.940;2022-09-12T07:38:29;35.60;44.60
32322;DHT22;61553;48.994;8.940;2022-09-12T07:40:54;34.90;45.40
32322;DHT22;61553;48.994;8.940;2022-09-12T07:43:20;34.50;46.00
32322;DHT22;61553;48.994;8.940;2022-09-12T07:45:46;34.70;45.60
32322;DHT22;61553;48.994;8.940;2022-09-12T07:48:12;35.10;45.00
32322;DHT22;61553;48.994;8.940;2022-09-12T07:50:38;35.10;45.20
32322;DHT22;61553;48.994;8.940;2022-09-12T07:53:04;35.00;45.10
32322;DHT22;61553;48.994;8.940;2022-09-12T07:55:30;34.90;44.90
32322;DHT22;61553;48.994;8.940;2022-09-12T07:57:56;34.50;45.50
32322;DHT22;61553;48.994;8.940;2022-09-12T08:00:22;34.60;46.00
32322;DHT22;61553;48.994;8.940;2022-09-12T08:02:52;35.50;44.70
32322;DHT22;61553;48.994;8.940;2022-09-12T08:05:19;36.00;43.60
32322;DHT22;61553;48.994;8.940;2022-09-12T08:07:45;36.30;43.00
32322;DHT22;61553;48.994;8.940;2022-09-12T08:10:11;36.10;43.10
32322;DHT22;61553;48.994;8.940;2022-09-12T08:12:37;35.80;43.10
32322;DHT22;61553;48.994;8.940;2022-09-12T08:15:03;35.70;43.60
32322;DHT22;61553;48.994;8.940;2022-09-12T08:17:29;35.90;43.30
32322;DHT22;61553;48.994;8.940;2022-09-12T08:19:55;36.20;43.10
32322;DHT22;61553;48.994;8.940;2022-09-12T08:22:21;35.80;43.00
32322;DHT22;61553;48.994;8.940;2022-09-12T08:24:47;35.70;42.60
32322;DHT22;61553;48.994;8.940;2022-09-12T08:27:14;36.00;43.00
32322;DHT22;61553;48.994;8.940;2022-09-12T08:29:40;36.30;42.40
32322;DHT22;61553;48.994;8.940;2022-09-12T08:32:05;35.40;43.30
32322;DHT22;61553;48.994;8.940;2022-09-12T08:34:31;35.60;43.40
32322;DHT22;61553;48.994;8.940;2022-09-12T08:36:57;35.70;43.30
32322;DHT22;61553;48.994;8.940;2022-09-12T08:39:23;36.20;42.40
32322;DHT22;61553;48.994;8.940;2022-09-12T08:42:03;35.80;43.00
32322;DHT22;61553;48.994;8.940;2022-09-12T08:44:56;37.00;41.60
32322;DHT22;61553;48.994;8.940;2022-09-12T08:47:35;37.40;41.10
32322;DHT22;61553;48.994;8.940;2022-09-12T08:52:53;38.70;39.90
32322;DHT22;61553;48.994;8.940;2022-09-12T08:55:33;39.30;39.60
32322;DHT22;61553;48.994;8.940;2022-09-12T08:58:21;39.70;38.80
32322;DHT22;61553;48.994;8.940;2022-09-12T09:12:21;38.40;38.90
32322;DHT22;61553;48.994;8.940;2022-09-12T09:17:57;38.60;38.90
32322;DHT22;61553;48.994;8.940;2022-09-12T09:28:32;38.50;38.30
32322;DHT22;61553;48.994;8.940;2022-09-12T09:31:01;37.90;38.60
32322;DHT22;61553;48.994;8.940;2022-09-12T09:33:32;38.00;38.50
32322;DHT22;61553;48.994;8.940;2022-09-12T09:36:04;38.00;38.50
32322;DHT22;61553;48.994;8.940;2022-09-12T09:44:11;37.70;38.50
32322;DHT22;61553;48.994;8.940;2022-09-12T09:46:37;37.90;38.30
32322;DHT22;61553;48.994;8.940;2022-09-12T09:49:04;37.80;38.20
32322;DHT22;61553;48.994;8.940;2022-09-12T09:51:37;38.20;38.00
32322;DHT22;61553;48.994;8.940;2022-09-12T09:56:47;37.70;38.20
32322;DHT22;61553;48.994;8.940;2022-09-12T09:59:31;38.10;37.80
32322;DHT22;61553;48.994;8.940;2022-09-12T10:02:03;38.50;37.30
32322;DHT22;61553;48.994;8.940;2022-09-12T10:04:40;39.20;36.70
32322;DHT22;61553;48.994;8.940;2022-09-12T10:07:20;38.10;37.00
32322;DHT22;61553;48.994;8.940;2022-09-12T10:10:14;39.10;36.80
32322;DHT22;61553;48.994;8.940;2022-09-12T10:12:40;40.50;35.40
32322;DHT22;61553;48.994;8.940;2022-09-12T10:15:23;40.00;35.80
32322;DHT22;61553;48.994;8.940;2022-09-12T10:17:52;40.00;35.60
32322;DHT22;61553;48.994;8.940;2022-09-12T10:20:38;39.20;35.60
32322;DHT22;61553;48.994;8.940;2022-09-12T10:23:35;39.60;34.90
32322;DHT22;61553;48.994;8.940;2022-09-12T10:26:07;38.40;35.70
32322;DHT22;61553;48.994;8.940;2022-09-12T10:28:40;38.60;35.80
32322;DHT22;61553;48.994;8.940;2022-09-12T10:31:09;38.20;36.10
32322;DHT22;61553;48.994;8.940;2022-09-12T10:33:46;37.90;36.40
32322;DHT22;61553;48.994;8.940;2022-09-12T10:36:20;37.50;36.10
32322;DHT22;61553;48.994;8.940;2022-09-12T10:38:54;36.90;36.70
32322;DHT22;61553;48.994;8.940;2022-09-12T10:41:21;36.50;36.20
32322;DHT22;61553;48.994;8.940;2022-09-12T10:43:47;35.60;37.60
32322;DHT22;61553;48.994;8.940;2022-09-12T10:48:39;35.00;39.00
32322;DHT22;61553;48.994;8.940;2022-09-12T10:51:04;34.40;39.60
32322;DHT22;61553;48.994;8.940;2022-09-12T10:53:43;34.70;39.60
32322;DHT22;61553;48.994;8.940;2022-09-12T11:15:11;31.70;41.80
32322;DHT22;61553;48.994;8.940;2022-09-12T11:17:41;31.40;42.20
32322;DHT22;61553;48.994;8.940;2022-09-12T11:28:52;32.20;41.20
32322;DHT22;61553;48.994;8.940;2022-09-12T11:34:08;31.40;41.50
32322;DHT22;61553;48.994;8.940;2022-09-12T11:39:33;30.60;43.20
32322;DHT22;61553;48.994;8.940;2022-09-12T11:42:04;30.00;44.10
32322;DHT22;61553;48.994;8.940;2022-09-12T11:44:43;29.60;44.50
32322;DHT22;61553;48.994;8.940;2022-09-12T11:47:11;29.30;44.50
32322;DHT22;61553;48.994;8.940;2022-09-12T11:49:47;29.00;45.70
32322;DHT22;61553;48.994;8.940;2022-09-12T11:52:24;28.60;46.70
32322;DHT22;61553;48.994;8.940;2022-09-12T11:55:02;28.20;46.20
32322;DHT22;61553;48.994;8.940;2022-09-12T11:57:42;28.10;47.10
32322;DHT22;61553;48.994;8.940;2022-09-12T12:00:22;27.90;46.90
32322;DHT22;61553;48.994;8.940;2022-09-12T12:02:59;27.80;47.70
32322;DHT22;61553;48.994;8.940;2022-09-12T12:05:40;27.80;47.70
32322;DHT22;61553;48.994;8.940;2022-09-12T12:08:07;27.30;46.50
32322;DHT22;61553;48.994;8.940;2022-09-12T12:10:52;27.20;47.60
32322;DHT22;61553;48.994;8.940;2022-09-12T12:13:33;27.10;48.10
32322;DHT22;61553;48.994;8.940;2022-09-12T12:16:03;27.00;48.40
32322;DHT22;61553;48.994;8.940;2022-09-12T12:18:31;27.00;48.80
32322;DHT22;61553;48.994;8.940;2022-09-12T12:21:28;26.90;48.30
32322;DHT22;61553;48.994;8.940;2022-09-12T12:26:52;26.60;48.30
32322;DHT22;61553;48.994;8.940;2022-09-12T12:34:43;26.10;48.00
32322;DHT22;61553;48.994;8.940;2022-09-12T12:42:59;25.90;49.80
32322;DHT22;61553;48.994;8.940;2022-09-12T12:44:55;26.00;49.40
32322;DHT22;61553;48.994;8.940;2022-09-12T12:47:21;26.10;49.20
32322;DHT22;61553;48.994;8.940;2022-09-12T12:50:34;26.20;49.50
32322;DHT22;61553;48.994;8.940;2022-09-12T12:55:34;26.10;48.80
32322;DHT22;61553;48.994;8.940;2022-09-12T12:58:04;26.10;48.80
32322;DHT22;61553;48.994;8.940;2022-09-12T13:00:37;26.20;48.90
32322;DHT22;61553;48.994;8.940;2022-09-12T13:05:50;26.20;48.00
32322;DHT22;61553;48.994;8.940;2022-09-12T13:10:54;26.10;47.20
32322;DHT22;61553;48.994;8.940;2022-09-12T13:13:30;26.10;48.10
32322;DHT22;61553;48.994;8.940;2022-09-12T13:15:57;26.10;47.40
32322;DHT22;61553;48.994;8.940;2022-09-12T13:18:44;26.00;47.30
32322;DHT22;61553;48.994;8.940;2022-09-12T13:23:39;26.20;47.80
32322;DHT22;61553;48.994;8.940;2022-09-12T13:26:19;26.30;47.80
32322;DHT22;61553;48.994;8.940;2022-09-12T13:28:46;26.30;47.10
32322;DHT22;61553;48.994;8.940;2022-09-12T13:31:21;26.30;46.90
32322;DHT22;61553;48.994;8.940;2022-09-12T13:33:53;26.40;47.20
32322;DHT22;61553;48.994;8.940;2022-09-12T13:38:49;26.40;47.30
32322;DHT22;61553;48.994;8.940;2022-09-12T13:44:03;26.30;47.10
32322;DHT22;61553;48.994;8.940;2022-09-12T13:46:33;26.40;47.20
32322;DHT22;61553;48.994;8.940;2022-09-12T13:49:00;26.50;46.90
32322;DHT22;61553;48.994;8.940;2022-09-12T13:51:28;26.40;46.20
32322;DHT22;61553;48.994;8.940;2022-09-12T13:53:57;26.50;47.10
32322;DHT22;61553;48.994;8.940;2022-09-12T13:56:23;26.50;47.10
32322;DHT22;61553;48.994;8.940;2022-09-12T13:58:55;26.60;46.80
32322;DHT22;61553;48.994;8.940;2022-09-12T14:01:23;26.70;46.20
32322;DHT22;61553;48.994;8.940;2022-09-12T14:03:52;26.60;46.00
32322;DHT22;61553;48.994;8.940;2022-09-12T14:06:44;26.50;46.10
32322;DHT22;61553;48.994;8.940;2022-09-12T14:09:33;26.60;46.40
32322;DHT22;61553;48.994;8.940;2022-09-12T14:12:03;26.50;46.10
32322;DHT22;61553;48.994;8.940;2022-09-12T14:14:36;26.60;46.40
32322;DHT22;61553;48.994;8.940;2022-09-12T14:17:22;26.50;46.50
32322;DHT22;61553;48.994;8.940;2022-09-12T14:19:48;26.60;45.50
32322;DHT22;61553;48.994;8.940;2022-09-12T14:22:14;26.60;46.10
32322;DHT22;61553;48.994;8.940;2022-09-12T14:24:49;26.70;46.30
32322;DHT22;61553;48.994;8.940;2022-09-12T14:27:27;26.70;45.80
32322;DHT22;61553;48.994;8.940;2022-09-12T14:30:04;26.80;45.30
32322;DHT22;61553;48.994;8.940;2022-09-12T14:32:32;26.80;45.20
32322;DHT22;61553;48.994;8.940;2022-09-12T14:35:18;26.80;45.60
32322;DHT22;61553;48.994;8.940;2022-09-12T14:37:49;26.70;45.20
32322;DHT22;61553;48.994;8.940;2022-09-12T14:40:18;26.80;44.60
32322;DHT22;61553;48.994;8.940;2022-09-12T14:42:44;26.70;45.20
32322;DHT22;61553;48.994;8.940;2022-09-12T14:47:49;26.50;45.90
32322;DHT22;61553;48.994;8.940;2022-09-12T14:50:24;26.50;45.40
32322;DHT22;61553;48.994;8.940;2022-09-12T14:53:05;26.50;45.70
32322;DHT22;61553;48.994;8.940;2022-09-12T14:55:33;26.60;46.20
32322;DHT22;61553;48.994;8.940;2022-09-12T15:00:59;26.70;45.10
32322;DHT22;61553;48.994;8.940;2022-09-12T15:03:34;26.70;45.30
32322;DHT22;61553;48.994;8.940;2022-09-12T15:06:02;26.80;45.90
32322;DHT22;61553;48.994;8.940;2022-09-12T15:08:29;26.80;44.60
32322;DHT22;61553;48.994;8.940;2022-09-12T15:10:56;26.80;45.00
32322;DHT22;61553;48.994;8.940;2022-09-12T15:13:24;26.80;45.50
32322;DHT22;61553;48.994;8.940;2022-09-12T15:15:55;26.70;44.90
32322;DHT22;61553;48.994;8.940;2022-09-12T15:18:23;26.70;44.80
32322;DHT22;61553;48.994;8.940;2022-09-12T15:20:51;26.50;44.70
32322;DHT22;61553;48.994;8.940;2022-09-12T15:25:48;26.40;45.10
32322;DHT22;61553;48.994;8.940;2022-09-12T15:28:17;26.40;45.50
32322;DHT22;61553;48.994;8.940;2022-09-12T15:30:45;26.40;45.40
32322;DHT22;61553;48.994;8.940;2022-09-12T15:33:11;26.30;45.50
32322;DHT22;61553;48.994;8.940;2022-09-12T15:35:36;26.20;45.10
32322;DHT22;61553;48.994;8.940;2022-09-12T15:38:02;26.20;45.20
32322;DHT22;61553;48.994;8.940;2022-09-12T15:40:28;26.10;46.10
32322;DHT22;61553;48.994;8.940;2022-09-12T15:42:53;26.10;46.10
32322;DHT22;61553;48.994;8.940;2022-09-12T15:45:25;26.00;45.80
32322;DHT22;61553;48.994;8.940;2022-09-12T15:47:52;25.90;46.10
32322;DHT22;61553;48.994;8.940;2022-09-12T15:50:18;25.80;46.20
32322;DHT22;61553;48.994;8.940;2022-09-12T15:52:44;25.80;46.20
32322;DHT22;61553;48.994;8.940;2022-09-12T15:55:22;25.80;46.40
32322;DHT22;61553;48.994;8.940;2022-09-12T15:57:48;25.70;47.20
32322;DHT22;61553;48.994;8.940;2022-09-12T16:00:15;25.60;47.70
32322;DHT22;61553;48.994;8.940;2022-09-12T16:02:42;25.50;46.50
32322;DHT22;61553;48.994;8.940;2022-09-12T16:05:13;25.50;47.10
32322;DHT22;61553;48.994;8.940;2022-09-12T16:07:39;25.40;47.40
32322;DHT22;61553;48.994;8.940;2022-09-12T16:10:05;25.40;47.20
32322;DHT22;61553;48.994;8.940;2022-09-12T16:12:31;25.30;47.80
32322;DHT22;61553;48.994;8.940;2022-09-12T16:14:56;25.30;48.00
32322;DHT22;61553;48.994;8.940;2022-09-12T16:17:22;25.20;47.50
32322;DHT22;61553;48.994;8.940;2022-09-12T16:19:48;25.20;48.20
32322;DHT22;61553;48.994;8.940;2022-09-12T16:22:13;25.20;47.80
32322;DHT22;61553;48.994;8.940;2022-09-12T16:24:39;25.10;47.80
32322;DHT22;61553;48.994;8.940;2022-09-12T16:27:05;25.00;48.20
32322;DHT22;61553;48.994;8.940;2022-09-12T16:29:31;24.90;47.80
32322;DHT22;61553;48.994;8.940;2022-09-12T16:31:56;24.80;48.90
32322;DHT22;61553;48.994;8.940;2022-09-12T16:34:22;24.80;49.10
32322;DHT22;61553;48.994;8.940;2022-09-12T16:36:48;24.70;49.30
32322;DHT22;61553;48.994;8.940;2022-09-12T16:39:13;24.60;50.10
32322;DHT22;61553;48.994;8.940;2022-09-12T16:41:39;24.50;50.90
32322;DHT22;61553;48.994;8.940;2022-09-12T16:44:07;24.40;50.30
32322;DHT22;61553;48.994;8.940;2022-09-12T16:46:33;24.30;50.40
32322;DHT22;61553;48.994;8.940;2022-09-12T16:48:59;24.20;51.00
32322;DHT22;61553;48.994;8.940;2022-09-12T16:51:30;24.10;52.00
32322;DHT22;61553;48.994;8.940;2022-09-12T16:53:56;24.00;52.70
32322;DHT22;61553;48.994;8.940;2022-09-12T16:56:22;23.80;53.20
32322;DHT22;61553;48.994;8.940;2022-09-12T16:58:49;23.70;53.20
32322;DHT22;61553;48.994;8.940;2022-09-12T17:01:20;23.60;54.00
32322;DHT22;61553;48.994;8.940;2022-09-12T17:03:46;23.50;54.50
32322;DHT22;61553;48.994;8.940;2022-09-12T17:06:17;23.30;54.80
32322;DHT22;61553;48.994;8.940;2022-09-12T17:08:45;23.20;55.10
32322;DHT22;61553;48.994;8.940;2022-09-12T17:11:17;23.00;55.40
32322;DHT22;61553;48.994;8.940;2022-09-12T17:13:53;22.90;55.60
32322;DHT22;61553;48.994;8.940;2022-09-12T17:16:20;22.80;55.90
32322;DHT22;61553;48.994;8.940;2022-09-12T17:18:45;22.70;57.10
32322;DHT22;61553;48.994;8.940;2022-09-12T17:21:12;22.50;57.90
32322;DHT22;61553;48.994;8.940;2022-09-12T17:23:39;22.30;58.50
32322;DHT22;61553;48.994;8.940;2022-09-12T17:26:06;22.20;59.20
32322;DHT22;61553;48.994;8.940;2022-09-12T17:28:32;22.00;59.80
32322;DHT22;61553;48.994;8.940;2022-09-12T17:31:03;21.80;61.50
32322;DHT22;61553;48.994;8.940;2022-09-12T17:33:29;21.60;63.70
32322;DHT22;61553;48.994;8.940;2022-09-12T17:36:21;21.40;64.80
32322;DHT22;61553;48.994;8.940;2022-09-12T17:38:47;21.10;66.20
32322;DHT22;61553;48.994;8.940;2022-09-12T17:41:16;20.90;66.70
32322;DHT22;61553;48.994;8.940;2022-09-12T17:43:50;20.70;67.50
32322;DHT22;61553;48.994;8.940;2022-09-12T17:46:17;20.40;68.20
32322;DHT22;61553;48.994;8.940;2022-09-12T17:48:43;20.20;69.20
32322;DHT22;61553;48.994;8.940;2022-09-12T17:51:13;20.00;70.20
32322;DHT22;61553;48.994;8.940;2022-09-12T17:53:42;19.70;72.30
32322;DHT22;61553;48.994;8.940;2022-09-12T17:56:09;19.50;75.50
32322;DHT22;61553;48.994;8.940;2022-09-12T17:58:35;19.30;76.40
32322;DHT22;61553;48.994;8.940;2022-09-12T18:01:06;19.10;78.90
32322;DHT22;61553;48.994;8.940;2022-09-12T18:03:55;19.00;81.40
32322;DHT22;61553;48.994;8.940;2022-09-12T18:06:22;18.80;84.20
32322;DHT22;61553;48.994;8.940;2022-09-12T18:08:48;18.50;86.80
32322;DHT22;61553;48.994;8.940;2022-09-12T18:11:13;18.40;89.30
32322;DHT22;61553;48.994;8.940;2022-09-12T18:13:39;18.20;91.30
32322;DHT22;61553;48.994;8.940;2022-09-12T18:16:06;18.00;92.90
32322;DHT22;61553;48.994;8.940;2022-09-12T18:18:33;17.90;94.70
32322;DHT22;61553;48.994;8.940;2022-09-12T18:21:00;17.70;96.50
32322;DHT22;61553;48.994;8.940;2022-09-12T18:23:25;17.50;98.40
32322;DHT22;61553;48.994;8.940;2022-09-12T18:25:59;17.40;99.80